9 de Julio, Argentina
Current Conditions -  °F | °C
As of 2:00 PM on Friday 24 Oct 2014 (Local Time) from SARC Reporting Station
Few Clouds Few Clouds  
Wind Chill: 93°   Ceiling: Unl
Heat Index: 93°   Visibility: 6mi
Dew Point: 55°   Wind: 7mph
Humidity: 28%   Direction: 160°SSE
Pressure: 29.85"   Gusts: NA
Location:  28.83°S, 58.83°W
Report Text: SARC 241700Z 16006KT 110V200 9999 FEW02534/13 Q1011
Loading
Personal Weather Stations






























Interactive Weather Map
Tropical Storm Tracking
New forecast layout! Learn more

10-Day Weather Forecast

Advertisements
Track Severe Weather on mobile